Time;durP1;ratioP1;P1;durP2;ratioP2;P2;SDS_P1;SDS_P2;PMS_P1;PMS_P2;Temp;Humidity;BMP_temperature;BMP_pressure;BME280_temperature;BME280_humidity;BME280_pressure;Samples;Min_cycle;Max_cycle;Signal;HPM_P1;HPM_P2
2022/01/15 00:01:30;;;;;;;13.13;11.93;;;3.10;53.20;;;;;;20591;6763;306836;-86
2022/01/15 00:04:05;;;;;;;11.30;10.20;;;3.10;53.10;;;;;;20736;6777;121067;-84
2022/01/15 00:06:41;;;;;;;12.80;11.50;;;3.10;52.50;;;;;;20513;6788;280533;-83
2022/01/15 00:09:16;;;;;;;12.17;11.07;;;3.30;52.70;;;;;;20611;6758;319972;-84
2022/01/15 00:11:53;;;;;;;11.73;10.63;;;3.50;52.10;;;;;;20608;6773;308680;-84
2022/01/15 00:14:35;;;;;;;12.02;10.82;;;3.80;51.80;;;;;;20610;6773;306630;-84
2022/01/15 00:17:14;;;;;;;11.10;10.10;;;4.10;50.30;;;;;;20581;6758;317166;-83
2022/01/15 00:19:43;;;;;;;8.93;8.13;;;4.10;50.30;;;;;;20886;6753;117404;-83
2022/01/15 00:22:18;;;;;;;9.47;8.67;;;3.80;50.30;;;;;;20865;6753;117833;-84
2022/01/15 00:24:54;;;;;;;11.07;10.03;;;3.40;51.00;;;;;;20670;6753;304588;-84
2022/01/15 00:27:30;;;;;;;10.60;9.60;;;3.40;51.00;;;;;;20750;6753;117521;-84
2022/01/15 00:30:06;;;;;;;10.67;9.57;;;3.30;50.90;;;;;;20865;6753;117434;-84
2022/01/15 00:32:41;;;;;;;11.73;9.30;;;3.00;51.10;;;;;;20889;6753;116951;-84
2022/01/15 00:35:17;;;;;;;10.73;9.87;;;2.70;51.50;;;;;;20675;6753;280902;-84
2022/01/15 00:37:52;;;;;;;10.13;9.33;;;2.80;52.10;;;;;;20476;6753;309115;-83
2022/01/15 00:40:28;;;;;;;9.20;8.40;;;3.20;51.50;;;;;;20888;6753;117625;-84
2022/01/15 00:43:04;;;;;;;10.43;9.53;;;3.10;51.20;;;;;;20667;6753;284485;-84
2022/01/15 00:45:40;;;;;;;10.10;9.30;;;3.40;50.30;;;;;;20673;6753;303193;-83
2022/01/15 00:48:15;;;;;;;10.57;9.68;;;3.40;50.20;;;;;;20392;6753;278790;-83
2022/01/15 00:50:52;;;;;;;11.85;10.75;;;3.70;49.30;;;;;;20623;6769;336431;-84
2022/01/15 00:53:27;;;;;;;10.83;9.83;;;3.70;49.30;;;;;;20618;6769;277398;-83
2022/01/15 00:56:04;;;;;;;9.83;8.87;;;3.90;49.40;;;;;;20807;6769;118575;-83
2022/01/15 00:58:41;;;;;;;9.47;8.53;;;3.60;49.50;;;;;;20848;6765;117769;-83
2022/01/15 01:01:17;;;;;;;10.85;9.85;;;3.10;50.00;;;;;;20579;6783;306855;-83
2022/01/15 01:03:53;;;;;;;11.30;10.30;;;3.10;50.60;;;;;;20532;6809;307874;-84
2022/01/15 01:06:29;;;;;;;10.52;9.52;;;3.40;50.90;;;;;;20475;6804;319320;-83
2022/01/15 01:09:08;;;;;;;9.13;8.33;;;3.60;50.80;;;;;;20803;6776;117049;-83
2022/01/15 01:11:47;;;;;;;9.40;8.60;;;3.40;50.60;;;;;;20641;6762;312127;-83
2022/01/15 01:20:10;;;;;;;8.27;7.50;;;3.30;49.40;;;;;;20904;6740;116742;-83
2022/01/15 01:22:56;;;;;;;9.13;8.40;;;2.80;50.10;;;;;;20706;6740;309301;-82
2022/01/15 01:25:37;;;;;;;9.97;9.17;;;2.80;50.40;;;;;;20716;6740;292533;-84
2022/01/15 01:28:15;;;;;;;8.37;7.67;;;3.10;49.90;;;;;;20765;6740;121575;-83
2022/01/15 01:30:52;;;;;;;8.83;8.03;;;3.00;49.60;;;;;;20779;6766;117397;-83
2022/01/15 01:38:59;;;;;;;12.00;10.67;;;2.50;51.30;;;;;;20764;6769;121435;-83
2022/01/15 01:41:35;;;;;;;9.67;8.67;;;2.50;51.10;;;;;;20751;6773;118411;-83
2022/01/15 01:44:04;;;;;;;8.90;8.03;;;2.20;51.20;;;;;;20676;6798;117548;-83
2022/01/15 01:46:49;;;;;;;9.33;8.53;;;1.90;51.80;;;;;;20709;6781;118368;-83
2022/01/15 01:49:16;;;;;;;10.68;9.77;;;1.90;51.80;;;;;;20565;6769;277827;-86
2022/01/15 01:51:51;;;;;;;9.90;9.00;;;2.10;51.80;;;;;;20748;6768;118140;-84
2022/01/15 01:54:26;;;;;;;11.67;10.57;;;2.10;51.40;;;;;;20505;6788;308696;-83
2022/01/15 01:57:02;;;;;;;9.77;8.90;;;2.30;51.40;;;;;;20766;6773;117212;-83
2022/01/15 01:59:38;;;;;;;9.87;8.80;;;2.20;51.00;;;;;;20868;6754;117419;-83
2022/01/15 02:02:14;;;;;;;11.30;10.30;;;2.10;51.10;;;;;;20643;6754;305662;-83
2022/01/15 02:04:51;;;;;;;11.93;10.87;;;2.10;51.10;;;;;;20670;6754;305763;-83
2022/01/15 02:07:29;;;;;;;9.73;8.87;;;2.40;50.70;;;;;;20768;6754;118092;-84
2022/01/15 02:10:02;;;;;;;10.10;9.10;;;2.30;50.50;;;;;;20800;6769;118103;-85
2022/01/15 02:12:38;;;;;;;11.33;10.30;;;2.00;50.90;;;;;;20606;6773;279927;-83
2022/01/15 02:15:16;;;;;;;12.23;11.03;;;2.10;51.40;;;;;;20605;6774;291599;-83
2022/01/15 02:17:53;;;;;;;10.87;10.07;;;2.40;51.00;;;;;;20392;6787;308135;-83
2022/01/15 02:26:04;;;;;;;12.10;11.10;;;3.00;49.50;;;;;;20646;6753;302790;-83
2022/01/15 02:28:41;;;;;;;13.40;12.13;;;3.10;48.90;;;;;;20663;6754;306468;-84
2022/01/15 02:31:17;;;;;;;12.57;11.37;;;3.20;48.60;;;;;;20875;6754;117723;-84
2022/01/15 02:33:52;;;;;;;12.73;11.27;;;2.80;48.80;;;;;;20878;6754;120099;-83
2022/01/15 02:36:28;;;;;;;14.80;13.30;;;2.40;50.20;;;;;;20564;6751;309786;-84
2022/01/15 02:39:04;;;;;;;12.17;10.97;;;2.40;50.20;;;;;;20882;6754;119449;-84
2022/01/15 02:41:41;;;;;;;14.30;11.80;;;2.20;50.10;;;;;;20877;6753;117256;-84
2022/01/15 02:44:19;;;;;;;12.97;11.70;;;2.00;50.60;;;;;;20846;6754;117122;-84
2022/01/15 02:48:00;;;;;;;15.03;13.63;;;1.80;51.00;;;;;;20553;6759;309408;-84
2022/01/15 02:49:31;;;;;;;13.17;11.10;;;1.90;51.10;;;;;;20777;6818;117860;-84
2022/01/15 02:52:06;;;;;;;11.77;10.57;;;1.80;50.80;;;;;;20811;6762;117793;-84
2022/01/15 02:54:42;;;;;;;13.00;11.88;;;1.70;51.30;;;;;;20639;6747;328075;-84
2022/01/15 02:57:18;;;;;;;14.97;13.50;;;2.20;51.40;;;;;;20519;6764;315278;-84
2022/01/15 02:59:54;;;;;;;12.17;10.97;;;2.10;51.20;;;;;;20809;6743;117387;-84
2022/01/15 03:02:31;;;;;;;9.83;9.07;;;2.10;50.80;;;;;;20840;6747;117471;-87
2022/01/15 03:05:05;;;;;;;11.95;10.75;;;1.90;51.20;;;;;;20694;6743;305529;-83
2022/01/15 03:07:41;;;;;;;14.63;10.60;;;2.00;52.40;;;;;;20737;6758;117367;-84
2022/01/15 03:10:16;;;;;;;13.10;11.67;;;2.00;51.50;;;;;;20584;6764;282868;-84
2022/01/15 03:12:54;;;;;;;12.17;11.13;;;2.10;51.00;;;;;;20610;6803;276969;-84
2022/01/15 03:15:29;;;;;;;9.83;9.00;;;2.40;50.20;;;;;;20781;6762;117424;-84
2022/01/15 03:18:07;;;;;;;11.90;10.73;;;2.30;50.00;;;;;;20409;6758;327230;-84
2022/01/15 03:20:43;;;;;;;9.63;8.83;;;2.30;50.30;;;;;;20873;6751;117216;-83
2022/01/15 03:23:19;;;;;;;11.37;10.37;;;2.10;50.80;;;;;;20695;6747;303018;-84
2022/01/15 03:25:54;;;;;;;11.77;10.83;;;2.20;50.40;;;;;;20688;6745;305262;-84
2022/01/15 03:28:30;;;;;;;10.20;8.93;;;2.40;49.30;;;;;;20722;6802;119726;-84
2022/01/15 03:31:05;;;;;;;9.90;8.80;;;2.20;49.10;;;;;;20902;6745;116872;-84
2022/01/15 03:33:41;;;;;;;11.23;10.20;;;1.90;49.70;;;;;;20597;6760;277345;-84
2022/01/15 03:36:18;;;;;;;11.20;10.20;;;1.90;49.80;;;;;;20600;6747;307580;-84
2022/01/15 03:38:53;;;;;;;10.37;9.40;;;2.20;49.20;;;;;;20900;6750;117118;-84
2022/01/15 03:41:30;;;;;;;10.70;9.80;;;2.00;49.50;;;;;;20735;6731;305386;-84
2022/01/15 03:44:05;;;;;;;9.93;9.07;;;2.00;49.50;;;;;;20905;6732;118524;-84
2022/01/15 03:46:41;;;;;;;9.00;8.20;;;1.90;49.40;;;;;;20889;6732;116631;-84
2022/01/15 03:49:16;;;;;;;11.23;10.07;;;1.70;49.90;;;;;;20669;6747;305510;-84
2022/01/15 03:51:53;;;;;;;13.80;8.90;;;1.70;50.00;;;;;;20912;6732;117531;-84
2022/01/15 03:54:28;;;;;;;10.93;10.00;;;1.70;50.00;;;;;;20689;6747;306027;-84
2022/01/15 03:57:04;;;;;;;12.57;11.40;;;1.80;50.20;;;;;;20564;6762;312953;-85
2022/01/15 03:59:41;;;;;;;12.13;10.87;;;2.10;49.60;;;;;;20621;6747;309429;-84
2022/01/15 04:02:16;;;;;;;11.03;9.93;;;2.40;48.70;;;;;;20859;6756;117274;-84
2022/01/15 04:04:52;;;;;;;11.80;10.70;;;2.20;48.70;;;;;;20682;6741;336086;-84
2022/01/15 04:07:27;;;;;;;10.23;9.23;;;2.10;49.00;;;;;;20739;6754;118185;-84
2022/01/15 04:10:03;;;;;;;9.87;8.87;;;2.00;49.10;;;;;;20925;6733;117946;-84
2022/01/15 04:12:39;;;;;;;11.20;10.20;;;1.70;49.60;;;;;;20679;6748;304275;-85
2022/01/15 04:15:16;;;;;;;10.80;9.70;;;1.70;49.60;;;;;;20917;6756;117683;-86
2022/01/15 04:17:51;;;;;;;10.63;9.57;;;1.70;49.60;;;;;;20799;6728;118535;-85
2022/01/15 04:20:26;;;;;;;12.20;10.40;;;1.50;50.00;;;;;;20751;6777;118077;-85
2022/01/15 04:23:04;;;;;;;13.07;11.87;;;1.40;50.00;;;;;;20603;6766;276843;-85
2022/01/15 04:25:39;;;;;;;10.13;9.33;;;1.40;50.60;;;;;;20934;6741;117082;-85
2022/01/15 04:28:16;;;;;;;12.53;11.33;;;1.40;49.70;;;;;;20426;6771;296771;-85
2022/01/15 04:30:52;;;;;;;12.33;11.23;;;1.50;49.90;;;;;;20682;6735;306219;-86
2022/01/15 04:33:30;;;;;;;11.73;10.40;;;1.90;49.40;;;;;;20825;6756;120357;-85
2022/01/15 04:36:03;;;;;;;11.73;10.57;;;1.50;49.60;;;;;;20903;6741;118664;-85
2022/01/15 04:38:39;;;;;;;11.73;10.53;;;1.50;49.60;;;;;;20913;6741;116419;-85
2022/01/15 04:41:15;;;;;;;14.60;12.27;;;1.30;50.00;;;;;;20673;6756;311816;-85
2022/01/15 04:43:50;;;;;;;10.60;9.70;;;1.40;50.10;;;;;;20760;6741;306225;-85
2022/01/15 04:46:26;;;;;;;9.10;8.30;;;1.70;48.80;;;;;;20834;6741;120977;-85
2022/01/15 04:49:01;;;;;;;8.67;7.97;;;1.60;48.50;;;;;;20882;6740;117395;-85
2022/01/15 04:51:38;;;;;;;9.57;8.67;;;1.40;49.10;;;;;;20932;6725;115943;-85
2022/01/15 04:54:14;;;;;;;11.13;10.20;;;1.10;49.50;;;;;;20684;6726;432891;-85
2022/01/15 04:56:49;;;;;;;10.93;10.02;;;1.20;49.60;;;;;;20647;6726;279288;-85
2022/01/15 04:59:25;;;;;;;11.20;10.13;;;1.60;49.30;;;;;;20659;6741;307507;-84
2022/01/15 05:02:00;;;;;;;9.33;8.43;;;1.80;48.70;;;;;;20863;6741;118039;-87
2022/01/15 05:04:36;;;;;;;9.97;9.17;;;1.70;48.70;;;;;;20659;6741;335664;-86
2022/01/15 05:07:12;;;;;;;8.93;8.13;;;1.70;49.30;;;;;;20815;6741;116855;-85
2022/01/15 05:09:47;;;;;;;10.87;9.97;;;1.60;49.30;;;;;;20693;6741;339682;-84
2022/01/15 05:12:42;;;;;;;10.77;9.87;;;1.60;48.80;;;;;;20718;6736;300308;-84
2022/01/15 05:15:09;;;;;;;9.07;8.27;;;1.80;47.90;;;;;;20849;6770;116347;-84
2022/01/15 05:17:46;;;;;;;8.60;7.80;;;1.30;48.50;;;;;;20739;6770;116015;-84
2022/01/15 05:20:22;;;;;;;8.67;7.87;;;1.20;48.40;;;;;;20885;6754;116682;-85
2022/01/15 05:22:57;;;;;;;11.33;10.13;;;1.00;49.20;;;;;;20883;6754;118034;-85
2022/01/15 05:25:33;;;;;;;10.27;9.27;;;0.80;49.70;;;;;;20886;6754;118096;-85
2022/01/15 05:28:09;;;;;;;7.97;7.27;;;0.70;50.10;;;;;;20714;6754;118532;-85
2022/01/15 05:30:45;;;;;;;20.33;10.93;;;0.60;50.40;;;;;;20682;6752;277853;-85
2022/01/15 05:33:21;;;;;;;19.80;10.77;;;0.80;50.90;;;;;;20673;6752;276645;-85
2022/01/15 05:35:56;;;;;;;53.43;10.50;;;1.20;50.20;;;;;;20870;6752;127351;-88
2022/01/15 05:38:32;;;;;;;38.37;12.20;;;1.20;49.90;;;;;;20416;6824;280220;-85
2022/01/15 05:41:08;;;;;;;12.23;11.00;;;1.50;48.90;;;;;;20671;6753;306512;-86
2022/01/15 05:43:47;;;;;;;17.17;10.13;;;1.40;48.90;;;;;;20887;6753;117679;-86
2022/01/15 05:46:22;;;;;;;43.47;10.03;;;1.30;48.80;;;;;;20789;6770;119824;-87
2022/01/15 05:48:58;;;;;;;107.50;10.87;;;1.00;49.30;;;;;;20885;6756;117157;-86
2022/01/15 05:51:33;;;;;;;62.83;11.20;;;0.70;49.90;;;;;;20896;6751;117256;-85
2022/01/15 05:54:10;;;;;;;67.07;10.57;;;0.50;50.40;;;;;;20872;6751;126796;-88
2022/01/15 05:56:45;;;;;;;143.33;15.73;;;0.30;50.70;;;;;;20628;6751;308343;-86
2022/01/15 05:59:20;;;;;;;75.80;11.50;;;0.50;51.40;;;;;;20940;6736;118503;-82
2022/01/15 06:02:00;;;;;;;62.43;12.33;;;0.50;51.00;;;;;;20718;6735;276655;-84
2022/01/15 06:04:33;;;;;;;61.13;12.50;;;0.70;51.00;;;;;;20937;6735;117194;-85
2022/01/15 06:07:09;;;;;;;17.87;10.90;;;0.70;50.80;;;;;;20601;6736;326158;-83
2022/01/15 06:09:44;;;;;;;11.25;10.20;;;0.80;50.50;;;;;;20726;6736;309681;-84
2022/01/15 06:12:28;;;;;;;11.50;10.43;;;1.40;49.50;;;;;;20707;6736;276549;-82
2022/01/15 06:14:56;;;;;;;12.20;11.10;;;1.40;49.50;;;;;;20543;6736;281810;-85
2022/01/15 06:17:32;;;;;;;10.80;9.50;;;1.60;48.60;;;;;;20626;6847;118810;-87
2022/01/15 06:20:08;;;;;;;9.23;8.47;;;1.40;48.50;;;;;;20876;6756;120718;-87
2022/01/15 06:22:43;;;;;;;9.10;8.23;;;1.10;49.10;;;;;;20848;6765;116951;-88
2022/01/15 06:25:20;;;;;;;10.30;9.30;;;0.80;49.70;;;;;;20859;6762;117248;-89
2022/01/15 06:27:56;;;;;;;9.50;8.50;;;0.50;50.60;;;;;;20696;6756;117024;-88
2022/01/15 06:30:32;;;;;;;10.57;9.57;;;0.40;50.60;;;;;;20714;6738;334657;-86
2022/01/15 06:33:08;;;;;;;11.63;10.53;;;0.60;50.50;;;;;;20672;6738;276770;-88
2022/01/15 06:35:46;;;;;;;11.70;10.70;;;1.00;49.40;;;;;;20573;6765;277977;-88
2022/01/15 06:38:20;;;;;;;10.33;9.50;;;1.60;48.40;;;;;;20499;6753;292319;-90
2022/01/15 06:40:56;;;;;;;9.77;8.87;;;1.50;48.30;;;;;;20657;6778;117508;-89
2022/01/15 06:43:42;;;;;;;;;;;;;;;;;;;;;
2022/01/15 06:46:18;;;;;;;;;;;;;;;;;;;;;
2022/01/15 06:48:44;;;;;;;10.03;9.13;;;0.80;49.30;;;;;;20519;6771;310690;-87
2022/01/15 06:51:30;;;;;;;10.90;9.90;;;1.30;48.90;;;;;;20509;6784;278717;-89
2022/01/15 06:53:56;;;;;;;10.70;9.80;;;1.30;48.90;;;;;;20506;6784;340517;-90
2022/01/15 06:56:31;;;;;;;9.03;8.33;;;1.60;47.40;;;;;;20732;6773;117305;-89
2022/01/15 06:59:29;;;;;;;;;;;;;;;;;;;;;
2022/01/15 07:01:42;;;;;;;33.73;28.93;;;1.20;47.90;;;;;;20477;6826;278760;-89
2022/01/15 07:04:28;;;;;;;;;;;;;;;;;;;;;
2022/01/15 07:06:53;;;;;;;30.70;13.20;;;1.40;48.30;;;;;;20668;6789;120200;-91
2022/01/15 07:09:29;;;;;;;68.17;12.83;;;1.40;49.40;;;;;;20922;6724;118429;-83
2022/01/15 07:12:08;;;;;;;138.63;16.00;;;1.20;49.80;;;;;;20588;6757;308457;-87
2022/01/15 07:14:46;;;;;;;66.43;12.03;;;1.30;49.40;;;;;;20838;6804;117359;-86
2022/01/15 07:17:31;;;;;;;;;;;;;;;;;;;;;
2022/01/15 07:19:58;;;;;;;174.13;17.80;;;1.20;50.00;;;;;;20534;6852;122749;-87
2022/01/15 07:22:34;;;;;;;109.20;15.27;;;0.80;49.90;;;;;;20798;6767;117477;-88
2022/01/15 07:25:10;;;;;;;25.83;13.13;;;0.80;50.00;;;;;;20528;6785;336588;-83
2022/01/15 07:27:47;;;;;;;13.73;11.17;;;1.00;50.00;;;;;;20613;6776;121054;-85
2022/01/15 07:30:25;;;;;;;18.03;11.77;;;1.00;49.60;;;;;;20553;6768;306329;-84
2022/01/15 07:32:58;;;;;;;15.90;9.17;;;1.10;49.70;;;;;;20738;6780;117385;-85
2022/01/15 07:35:33;;;;;;;10.07;8.87;;;1.20;49.40;;;;;;20788;6769;117920;-88
2022/01/15 07:38:09;;;;;;;12.07;8.33;;;1.00;49.60;;;;;;20651;6751;117735;-87
2022/01/15 07:40:44;;;;;;;127.13;15.10;;;0.80;49.90;;;;;;20608;6759;308316;-88
2022/01/15 07:43:20;;;;;;;40.13;11.97;;;1.00;50.00;;;;;;20849;6755;121212;-86
2022/01/15 07:46:05;;;;;;;26.00;10.23;;;1.10;49.50;;;;;;20834;6758;117189;-87
2022/01/15 07:48:31;;;;;;;195.60;17.47;;;0.90;49.60;;;;;;20640;6765;302751;-86
2022/01/15 07:51:07;;;;;;;99.33;14.37;;;1.10;49.80;;;;;;20641;6765;281903;-87
2022/01/15 07:53:42;;;;;;;27.57;13.60;;;1.50;48.80;;;;;;20617;6750;293592;-87
2022/01/15 07:56:18;;;;;;;22.73;13.03;;;1.80;48.00;;;;;;20598;6750;306610;-86
2022/01/15 07:58:53;;;;;;;10.77;9.80;;;2.00;47.60;;;;;;20764;6780;117101;-86
2022/01/15 08:01:29;;;;;;;11.53;10.40;;;1.80;47.70;;;;;;20759;6780;118151;-87
2022/01/15 08:04:04;;;;;;;10.77;9.83;;;1.50;48.20;;;;;;20726;6783;118321;-88
2022/01/15 08:06:42;;;;;;;9.77;8.97;;;1.20;48.50;;;;;;20751;6786;118485;-87
2022/01/15 08:09:17;;;;;;;9.33;8.43;;;1.00;49.10;;;;;;20727;6781;121352;-88
2022/01/15 08:11:53;;;;;;;11.63;10.70;;;1.10;49.20;;;;;;20577;6762;306970;-89
2022/01/15 08:14:30;;;;;;;12.93;11.83;;;1.10;49.20;;;;;;20582;6762;305798;-89
2022/01/15 08:17:06;;;;;;;16.70;15.10;;;1.60;48.40;;;;;;20499;6762;279539;-89
2022/01/15 08:19:42;;;;;;;16.35;14.75;;;2.40;46.60;;;;;;20544;6769;285615;-87
2022/01/15 08:22:19;;;;;;;15.57;13.90;;;2.40;46.60;;;;;;20782;6769;118456;-89
2022/01/15 08:24:54;;;;;;;15.33;13.37;;;2.40;46.60;;;;;;20603;6776;277692;-88
2022/01/15 08:27:30;;;;;;;11.13;10.10;;;2.50;46.60;;;;;;20748;6762;118206;-88
2022/01/15 08:30:06;;;;;;;11.13;10.03;;;2.40;46.60;;;;;;20763;6780;121476;-90
2022/01/15 08:32:43;;;;;;;11.40;10.40;;;2.30;47.20;;;;;;20684;6786;267546;-87
2022/01/15 08:35:19;;;;;;;9.83;8.93;;;2.20;47.60;;;;;;20785;6770;117733;-88
2022/01/15 08:37:55;;;;;;;8.67;7.97;;;2.20;48.20;;;;;;20716;6757;120677;-88
2022/01/15 08:40:32;;;;;;;11.83;10.83;;;2.20;48.50;;;;;;20597;6759;304136;-87
2022/01/15 08:43:06;;;;;;;11.27;10.27;;;2.50;48.20;;;;;;20740;6765;118822;-89
2022/01/15 08:45:42;;;;;;;11.63;10.73;;;2.70;48.00;;;;;;20579;6766;336423;-88
2022/01/15 08:48:19;;;;;;;11.83;10.83;;;3.10;47.50;;;;;;20366;6821;283383;-90
2022/01/15 08:50:52;;;;;;;11.90;11.00;;;3.60;46.30;;;;;;20656;6746;339810;-90
2022/01/15 08:53:28;;;;;;;11.70;10.70;;;3.90;45.10;;;;;;20817;6754;117605;-86
2022/01/15 08:56:04;;;;;;;10.53;9.50;;;4.00;45.20;;;;;;20715;6769;127221;-87
2022/01/15 08:58:39;;;;;;;10.17;9.27;;;3.90;45.60;;;;;;20709;6821;118466;-86
2022/01/15 09:01:15;;;;;;;11.30;10.50;;;3.70;45.90;;;;;;20584;6769;307137;-85
2022/01/15 09:03:50;;;;;;;10.63;9.73;;;3.80;45.30;;;;;;20792;6767;118808;-85
2022/01/15 09:06:29;;;;;;;10.83;9.93;;;3.90;45.30;;;;;;20786;6773;120935;-88
2022/01/15 09:09:04;;;;;;;12.37;11.27;;;3.70;45.50;;;;;;20601;6762;312169;-87
2022/01/15 09:11:41;;;;;;;12.40;11.40;;;3.80;45.00;;;;;;20583;6784;282775;-89
2022/01/15 09:14:17;;;;;;;12.15;11.15;;;4.40;44.00;;;;;;20528;6822;312732;-85
2022/01/15 09:16:54;;;;;;;11.60;10.60;;;4.40;44.00;;;;;;20720;6766;117441;-86
2022/01/15 09:19:29;;;;;;;11.87;10.97;;;4.30;44.20;;;;;;20579;6781;307089;-86
2022/01/15 09:22:14;;;;;;;10.90;10.00;;;4.30;44.30;;;;;;20720;6779;119539;-84
2022/01/15 09:24:44;;;;;;;10.90;10.00;;;4.30;44.70;;;;;;20806;6762;117689;-83
2022/01/15 09:30:12;;;;;;;11.50;10.60;;;4.00;45.80;;;;;;20563;6764;277916;-84
2022/01/15 09:32:50;;;;;;;11.70;10.80;;;4.30;45.60;;;;;;20589;6762;307165;-85
2022/01/15 09:35:27;;;;;;;10.63;9.73;;;4.70;45.00;;;;;;20754;6781;117763;-85
2022/01/15 09:38:01;;;;;;;9.47;8.77;;;4.80;44.90;;;;;;20610;6776;122083;-84
2022/01/15 09:40:40;;;;;;;10.57;9.63;;;4.60;45.30;;;;;;20775;6774;119964;-85
2022/01/15 09:43:15;;;;;;;10.23;9.33;;;4.50;45.70;;;;;;20751;6779;117224;-90
2022/01/15 09:45:50;;;;;;;10.57;9.57;;;4.30;46.00;;;;;;20823;6758;118215;-85
2022/01/15 09:48:26;;;;;;;11.70;10.80;;;4.30;46.50;;;;;;20428;6770;282900;-87
2022/01/15 09:51:01;;;;;;;13.30;10.87;;;4.60;46.80;;;;;;20645;6741;307177;-87
2022/01/15 09:53:48;;;;;;;11.70;10.60;;;5.00;46.40;;;;;;20816;6758;117882;-88
2022/01/15 09:56:13;;;;;;;12.97;11.93;;;5.10;46.10;;;;;;20585;6753;306788;-88
2022/01/15 09:58:49;;;;;;;11.17;10.27;;;5.30;46.10;;;;;;20853;6746;117309;-88
2022/01/15 10:01:28;;;;;;;12.43;11.43;;;5.40;46.20;;;;;;20702;6732;309801;-84
2022/01/15 10:04:03;;;;;;;11.90;10.80;;;5.60;46.50;;;;;;20853;6747;119283;-83
2022/01/15 10:07:47;;;;;;;;;;;;;;;;;;;;;
2022/01/15 10:13:30;;;;;;;;;;;;;;;;;;;;;
2022/01/15 10:16:04;;;;;;;12.75;11.77;;;6.00;46.70;;;;;;20348;6842;335637;-90
2022/01/15 10:18:42;;;;;;;13.00;12.00;;;6.20;46.50;;;;;;20523;6800;307382;-91
2022/01/15 10:21:39;;;;;;;;;;;;;;;;;;;;;
2022/01/15 10:24:13;;;;;;;;;;;;;;;;;;;;;
2022/01/15 10:26:39;;;;;;;11.47;10.47;;;6.30;46.00;;;;;;20583;6808;121447;-87
2022/01/15 10:29:24;;;;;;;;;;;;;;;;;;;;;
2022/01/15 10:31:50;;;;;;;13.13;12.03;;;6.10;46.70;;;;;;20413;6813;280458;-88
2022/01/15 10:34:29;;;;;;;12.17;11.17;;;6.30;46.20;;;;;;20600;6869;117700;-86
2022/01/15 10:37:07;;;;;;;12.00;10.90;;;6.30;46.00;;;;;;20490;6843;117645;-88
2022/01/15 10:39:55;;;;;;;13.23;12.03;;;6.10;46.40;;;;;;20551;6843;117918;-88
2022/01/15 10:42:51;;;;;;;;;;;;;;;;;;;;;
2022/01/15 10:45:11;;;;;;;12.93;11.83;;;6.30;46.20;;;;;;20534;6886;117637;-84
2022/01/15 10:47:54;;;;;;;11.93;10.90;;;6.50;46.20;;;;;;20477;6827;119816;-84
2022/01/15 10:50:29;;;;;;;12.60;11.40;;;6.40;46.20;;;;;;20569;6827;123852;-85
2022/01/15 10:53:04;;;;;;;12.13;11.03;;;6.30;46.40;;;;;;20520;6827;123878;-82
2022/01/15 10:55:40;;;;;;;12.27;11.17;;;6.20;46.70;;;;;;20576;6827;117744;-85
2022/01/15 10:58:17;;;;;;;11.87;10.77;;;6.10;46.80;;;;;;20414;6828;118596;-87
2022/01/15 11:00:53;;;;;;;12.07;10.97;;;6.10;46.90;;;;;;20596;6828;117526;-83
2022/01/15 11:03:46;;;;;;;12.90;11.70;;;6.00;46.90;;;;;;20537;6887;117623;-83
2022/01/15 11:06:13;;;;;;;12.93;11.67;;;6.00;46.90;;;;;;20547;6828;118096;-86
2022/01/15 11:08:52;;;;;;;15.03;13.73;;;6.20;46.60;;;;;;20383;6828;334523;-84
2022/01/15 11:11:25;;;;;;;14.43;13.23;;;6.20;46.50;;;;;;20381;6828;301248;-86
2022/01/15 11:14:02;;;;;;;15.03;13.53;;;6.70;45.70;;;;;;20574;6828;122395;-90
2022/01/15 11:16:37;;;;;;;15.05;13.77;;;6.80;45.60;;;;;;20344;6828;297115;-85
2022/01/15 11:19:14;;;;;;;15.82;14.52;;;7.00;45.30;;;;;;20381;6828;308970;-86
2022/01/15 11:21:50;;;;;;;13.17;11.97;;;7.30;44.60;;;;;;20620;6828;68021;-90
2022/01/15 11:24:26;;;;;;;13.03;11.80;;;7.20;44.50;;;;;;20587;6818;119634;-88
2022/01/15 11:27:02;;;;;;;14.30;13.10;;;7.20;44.60;;;;;;20317;6828;309485;-92
2022/01/15 11:29:49;;;;;;;13.75;12.65;;;7.50;43.90;;;;;;20066;6868;316298;-92
2022/01/15 11:32:17;;;;;;;12.10;11.10;;;7.50;43.90;;;;;;20481;6913;121714;-91
2022/01/15 11:35:03;;;;;;;12.23;11.03;;;7.50;44.20;;;;;;20375;6839;117377;-89
2022/01/15 11:37:42;;;;;;;13.77;12.47;;;7.40;44.80;;;;;;20121;6939;293386;-90
2022/01/15 11:40:48;;;;;;;12.20;11.10;;;7.50;43.50;;;;;;20687;6857;117350;-88
2022/01/15 11:43:25;;;;;;;13.43;12.00;;;7.50;43.70;;;;;;20582;6852;117604;-90
2022/01/15 11:46:04;;;;;;;12.00;10.80;;;7.30;44.20;;;;;;20687;6810;127295;-89
2022/01/15 11:48:39;;;;;;;12.83;10.83;;;7.20;44.80;;;;;;20765;6852;117649;-86
2022/01/15 11:51:15;;;;;;;13.37;12.07;;;7.20;45.00;;;;;;20715;6810;118037;-84
2022/01/15 11:53:52;;;;;;;13.65;12.37;;;7.10;45.30;;;;;;20581;6810;312006;-86
2022/01/15 11:56:26;;;;;;;12.87;11.73;;;7.30;44.90;;;;;;20548;6810;121761;-88
2022/01/15 11:59:31;;;;;;;12.55;11.52;;;7.40;44.80;;;;;;20502;6804;312617;-85
2022/01/15 12:02:08;;;;;;;12.97;11.67;;;7.60;43.60;;;;;;20746;6814;117911;-92
2022/01/15 12:04:44;;;;;;;11.60;10.50;;;7.50;43.80;;;;;;20748;6826;117507;-88
2022/01/15 12:07:20;;;;;;;11.82;10.82;;;7.40;44.20;;;;;;20425;6799;284871;-86
2022/01/15 12:09:56;;;;;;;11.37;10.30;;;7.60;43.50;;;;;;20722;6814;117549;-90
2022/01/15 12:12:37;;;;;;;12.87;11.80;;;7.60;43.50;;;;;;20538;6784;305579;-87
2022/01/15 12:15:16;;;;;;;;;;;;;;;;;;;;;
2022/01/15 12:17:47;;;;;;;13.60;12.50;;;7.70;43.10;;;;;;20264;6805;281744;-86
2022/01/15 12:20:31;;;;;;;13.23;11.93;;;7.80;43.30;;;;;;20734;6803;119677;-91
2022/01/15 12:23:03;;;;;;;25.63;12.40;;;7.80;43.50;;;;;;20742;6795;118110;-88
2022/01/15 12:25:39;;;;;;;21.27;13.13;;;7.60;44.10;;;;;;20676;6794;117487;-84
2022/01/15 12:28:15;;;;;;;33.22;14.27;;;7.70;44.80;;;;;;20266;6866;310226;-87
2022/01/15 12:30:54;;;;;;;23.63;12.73;;;7.70;44.80;;;;;;20588;6885;117721;-87
2022/01/15 12:33:28;;;;;;;15.10;12.23;;;7.80;44.80;;;;;;20649;6826;117755;-86
2022/01/15 12:36:03;;;;;;;15.43;13.90;;;7.70;45.00;;;;;;20440;6819;310304;-86
2022/01/15 12:38:40;;;;;;;16.47;13.50;;;7.90;44.80;;;;;;20623;6837;117960;-84
2022/01/15 12:41:18;;;;;;;16.80;12.37;;;8.00;44.70;;;;;;20635;6822;117392;-87
2022/01/15 12:43:54;;;;;;;16.30;14.90;;;7.90;44.90;;;;;;20387;6833;338874;-89
2022/01/15 12:46:29;;;;;;;15.30;13.90;;;8.10;44.60;;;;;;20294;6902;281655;-88
2022/01/15 12:49:04;;;;;;;14.73;13.13;;;8.40;43.20;;;;;;20338;6836;280128;-85
2022/01/15 12:51:46;;;;;;;14.87;13.47;;;8.70;42.80;;;;;;20026;6841;312117;-93
2022/01/15 12:54:16;;;;;;;15.43;13.93;;;9.10;42.00;;;;;;20333;6838;339209;-85
2022/01/15 12:56:53;;;;;;;14.53;13.03;;;9.10;42.00;;;;;;20467;6906;117732;-87
2022/01/15 12:59:29;;;;;;;14.70;13.40;;;8.90;42.30;;;;;;20391;6828;280406;-85
2022/01/15 13:02:04;;;;;;;14.60;13.30;;;8.90;42.10;;;;;;20671;6807;117779;-84
2022/01/15 13:04:41;;;;;;;15.00;13.70;;;8.70;42.30;;;;;;20447;6807;285699;-83
2022/01/15 13:07:16;;;;;;;16.10;14.50;;;8.70;42.30;;;;;;20338;6815;280263;-82
2022/01/15 13:09:52;;;;;;;15.87;14.57;;;8.90;41.90;;;;;;20414;6814;280925;-85
2022/01/15 13:12:29;;;;;;;15.07;13.73;;;9.10;41.50;;;;;;20429;6811;278570;-87
2022/01/15 13:15:04;;;;;;;14.87;13.67;;;9.20;41.00;;;;;;20417;6871;318777;-86
2022/01/15 13:17:41;;;;;;;14.77;13.47;;;9.10;41.50;;;;;;20493;6815;117543;-81
2022/01/15 13:20:29;;;;;;;15.35;13.98;;;9.10;41.50;;;;;;20362;6837;336722;-83
2022/01/15 13:23:05;;;;;;;14.27;13.03;;;9.10;41.70;;;;;;20698;6815;118982;-81
2022/01/15 13:25:41;;;;;;;15.47;14.10;;;8.90;42.20;;;;;;20469;6825;295746;-83
2022/01/15 13:28:18;;;;;;;14.53;13.20;;;8.90;42.10;;;;;;20444;6822;118100;-82
2022/01/15 13:30:54;;;;;;;18.50;16.70;;;8.80;42.30;;;;;;20460;6805;279412;-83
2022/01/15 13:33:33;;;;;;;25.17;19.80;;;8.80;42.40;;;;;;20649;6865;117700;-83
2022/01/15 13:36:09;;;;;;;16.97;15.37;;;8.50;43.10;;;;;;20643;6805;117630;-85
2022/01/15 13:38:45;;;;;;;15.67;14.03;;;8.50;43.10;;;;;;20767;6792;117433;-85
2022/01/15 13:41:24;;;;;;;18.57;16.87;;;8.30;43.50;;;;;;20553;6792;282028;-85
2022/01/15 13:44:11;;;;;;;16.90;15.30;;;8.40;43.40;;;;;;20704;6807;122163;-84
2022/01/15 13:46:49;;;;;;;15.40;13.57;;;8.40;43.40;;;;;;20721;6792;117441;-83
2022/01/15 13:49:17;;;;;;;20.75;18.65;;;8.20;43.70;;;;;;20462;6820;341825;-83
2022/01/15 13:54:58;;;;;;;18.27;16.10;;;8.20;43.80;;;;;;20681;6822;117588;-85
2022/01/15 13:57:34;;;;;;;19.00;17.30;;;8.00;44.00;;;;;;20388;6807;310702;-85
2022/01/15 14:00:09;;;;;;;19.03;17.00;;;8.10;44.20;;;;;;20681;6811;117848;-87